sensor_id;sensor_type;location;lat;lon;timestamp;temperature;humidity
40932;DHT22;36257;46.052;12.540;2022-12-18T00:00:40;4.00;99.90
40932;DHT22;36257;46.052;12.540;2022-12-18T00:03:06;4.10;99.90
40932;DHT22;36257;46.052;12.540;2022-12-18T00:05:32;4.10;99.90
40932;DHT22;36257;46.052;12.540;2022-12-18T00:07:58;4.10;99.90
40932;DHT22;36257;46.052;12.540;2022-12-18T00:10:24;4.10;99.90
40932;DHT22;36257;46.052;12.540;2022-12-18T00:12:49;4.20;99.90
40932;DHT22;36257;46.052;12.540;2022-12-18T00:15:15;4.20;99.90
40932;DHT22;36257;46.052;12.540;2022-12-18T00:17:41;4.20;99.90
40932;DHT22;36257;46.052;12.540;2022-12-18T00:20:07;4.20;99.90
40932;DHT22;36257;46.052;12.540;2022-12-18T00:22:33;4.20;99.90
40932;DHT22;36257;46.052;12.540;2022-12-18T00:24:58;4.20;99.90
40932;DHT22;36257;46.052;12.540;2022-12-18T00:27:24;4.20;99.90
40932;DHT22;36257;46.052;12.540;2022-12-18T00:29:50;4.20;99.90
40932;DHT22;36257;46.052;12.540;2022-12-18T00:32:15;4.10;99.90
40932;DHT22;36257;46.052;12.540;2022-12-18T00:34:41;4.20;99.90
40932;DHT22;36257;46.052;12.540;2022-12-18T00:37:07;4.20;99.90
40932;DHT22;36257;46.052;12.540;2022-12-18T00:39:32;4.10;99.90
40932;DHT22;36257;46.052;12.540;2022-12-18T00:41:58;4.10;99.90
40932;DHT22;36257;46.052;12.540;2022-12-18T00:44:42;4.10;99.90
40932;DHT22;36257;46.052;12.540;2022-12-18T00:47:08;4.10;99.90
40932;DHT22;36257;46.052;12.540;2022-12-18T00:49:33;4.00;99.90
40932;DHT22;36257;46.052;12.540;2022-12-18T00:51:59;4.00;99.90
40932;DHT22;36257;46.052;12.540;2022-12-18T00:54:25;4.00;99.90
40932;DHT22;36257;46.052;12.540;2022-12-18T00:56:50;4.00;99.90
40932;DHT22;36257;46.052;12.540;2022-12-18T00:59:17;4.00;99.90
40932;DHT22;36257;46.052;12.540;2022-12-18T01:01:43;3.90;99.90
40932;DHT22;36257;46.052;12.540;2022-12-18T01:04:08;3.80;99.90
40932;DHT22;36257;46.052;12.540;2022-12-18T01:06:34;3.70;99.90
40932;DHT22;36257;46.052;12.540;2022-12-18T01:09:00;3.70;99.90
40932;DHT22;36257;46.052;12.540;2022-12-18T01:11:25;3.70;99.90
40932;DHT22;36257;46.052;12.540;2022-12-18T01:13:53;3.70;99.90
40932;DHT22;36257;46.052;12.540;2022-12-18T01:16:19;3.70;99.90
40932;DHT22;36257;46.052;12.540;2022-12-18T01:18:44;3.80;99.90
40932;DHT22;36257;46.052;12.540;2022-12-18T01:21:14;3.80;99.90
40932;DHT22;36257;46.052;12.540;2022-12-18T01:23:40;3.90;99.90
40932;DHT22;36257;46.052;12.540;2022-12-18T01:26:12;3.90;99.90
40932;DHT22;36257;46.052;12.540;2022-12-18T01:28:39;3.90;99.90
40932;DHT22;36257;46.052;12.540;2022-12-18T01:31:19;3.80;99.90
40932;DHT22;36257;46.052;12.540;2022-12-18T01:33:48;3.80;99.90
40932;DHT22;36257;46.052;12.540;2022-12-18T01:36:19;3.80;99.90
40932;DHT22;36257;46.052;12.540;2022-12-18T01:38:46;3.90;99.90
40932;DHT22;36257;46.052;12.540;2022-12-18T01:41:13;3.90;99.90
40932;DHT22;36257;46.052;12.540;2022-12-18T01:46:13;3.80;99.90
40932;DHT22;36257;46.052;12.540;2022-12-18T01:48:40;3.80;99.90
40932;DHT22;36257;46.052;12.540;2022-12-18T01:51:08;3.80;99.90
40932;DHT22;36257;46.052;12.540;2022-12-18T01:53:34;3.70;99.90
40932;DHT22;36257;46.052;12.540;2022-12-18T01:56:00;3.80;99.90
40932;DHT22;36257;46.052;12.540;2022-12-18T02:01:11;3.80;99.90
40932;DHT22;36257;46.052;12.540;2022-12-18T02:03:37;3.80;99.90
40932;DHT22;36257;46.052;12.540;2022-12-18T02:13:46;3.70;99.90
40932;DHT22;36257;46.052;12.540;2022-12-18T02:18:49;3.60;99.90
40932;DHT22;36257;46.052;12.540;2022-12-18T02:27:07;3.50;99.90
40932;DHT22;36257;46.052;12.540;2022-12-18T02:29:53;3.50;99.90
40932;DHT22;36257;46.052;12.540;2022-12-18T02:32:31;3.40;99.90
40932;DHT22;36257;46.052;12.540;2022-12-18T02:34:58;3.20;99.90
40932;DHT22;36257;46.052;12.540;2022-12-18T02:37:25;3.20;99.90
40932;DHT22;36257;46.052;12.540;2022-12-18T02:39:55;3.30;99.90
40932;DHT22;36257;46.052;12.540;2022-12-18T02:42:22;3.30;99.90
40932;DHT22;36257;46.052;12.540;2022-12-18T02:44:50;3.30;99.90
40932;DHT22;36257;46.052;12.540;2022-12-18T02:47:18;3.30;99.90
40932;DHT22;36257;46.052;12.540;2022-12-18T02:52:35;3.10;99.90
40932;DHT22;36257;46.052;12.540;2022-12-18T02:55:23;3.10;99.90
40932;DHT22;36257;46.052;12.540;2022-12-18T02:57:58;3.00;99.90
40932;DHT22;36257;46.052;12.540;2022-12-18T03:01:35;3.00;99.90
40932;DHT22;36257;46.052;12.540;2022-12-18T03:03:52;2.90;99.90
40932;DHT22;36257;46.052;12.540;2022-12-18T03:06:37;2.90;99.90
40932;DHT22;36257;46.052;12.540;2022-12-18T03:09:20;2.90;99.90
40932;DHT22;36257;46.052;12.540;2022-12-18T03:11:54;2.80;99.90
40932;DHT22;36257;46.052;12.540;2022-12-18T03:14:40;2.70;99.90
40932;DHT22;36257;46.052;12.540;2022-12-18T03:17:10;2.70;99.90
40932;DHT22;36257;46.052;12.540;2022-12-18T03:19:36;2.70;99.90
40932;DHT22;36257;46.052;12.540;2022-12-18T03:22:06;2.60;99.90
40932;DHT22;36257;46.052;12.540;2022-12-18T03:24:33;2.70;99.90
40932;DHT22;36257;46.052;12.540;2022-12-18T03:27:02;2.70;99.90
40932;DHT22;36257;46.052;12.540;2022-12-18T03:32:08;2.70;99.90
40932;DHT22;36257;46.052;12.540;2022-12-18T03:34:37;2.60;99.90
40932;DHT22;36257;46.052;12.540;2022-12-18T03:37:04;2.60;99.90
40932;DHT22;36257;46.052;12.540;2022-12-18T03:39:30;2.60;99.90
40932;DHT22;36257;46.052;12.540;2022-12-18T03:47:13;2.50;99.90
40932;DHT22;36257;46.052;12.540;2022-12-18T03:52:49;2.40;99.90
40932;DHT22;36257;46.052;12.540;2022-12-18T03:55:17;2.30;99.90
40932;DHT22;36257;46.052;12.540;2022-12-18T03:57:44;2.30;99.90
40932;DHT22;36257;46.052;12.540;2022-12-18T04:00:13;2.20;99.90
40932;DHT22;36257;46.052;12.540;2022-12-18T04:02:43;2.20;99.90
40932;DHT22;36257;46.052;12.540;2022-12-18T04:05:10;2.20;99.90
40932;DHT22;36257;46.052;12.540;2022-12-18T04:07:37;2.20;99.90
40932;DHT22;36257;46.052;12.540;2022-12-18T04:10:06;2.20;99.90
40932;DHT22;36257;46.052;12.540;2022-12-18T04:12:32;2.20;99.90
40932;DHT22;36257;46.052;12.540;2022-12-18T04:14:57;2.20;99.90
40932;DHT22;36257;46.052;12.540;2022-12-18T04:17:23;2.30;99.90
40932;DHT22;36257;46.052;12.540;2022-12-18T04:19:49;2.30;99.90
40932;DHT22;36257;46.052;12.540;2022-12-18T04:22:15;2.30;99.90
40932;DHT22;36257;46.052;12.540;2022-12-18T04:24:40;2.20;99.90
40932;DHT22;36257;46.052;12.540;2022-12-18T04:27:07;2.30;99.90
40932;DHT22;36257;46.052;12.540;2022-12-18T04:29:32;2.30;99.90
40932;DHT22;36257;46.052;12.540;2022-12-18T04:31:58;2.30;99.90
40932;DHT22;36257;46.052;12.540;2022-12-18T04:34:23;2.20;99.90
40932;DHT22;36257;46.052;12.540;2022-12-18T04:36:49;2.20;99.90
40932;DHT22;36257;46.052;12.540;2022-12-18T04:39:18;2.20;99.90
40932;DHT22;36257;46.052;12.540;2022-12-18T04:41:43;2.20;99.90
40932;DHT22;36257;46.052;12.540;2022-12-18T04:44:09;2.20;99.90
40932;DHT22;36257;46.052;12.540;2022-12-18T04:46:35;2.20;99.90
40932;DHT22;36257;46.052;12.540;2022-12-18T04:49:00;2.20;99.90
40932;DHT22;36257;46.052;12.540;2022-12-18T04:51:26;2.20;99.90
40932;DHT22;36257;46.052;12.540;2022-12-18T04:53:52;2.10;99.90
40932;DHT22;36257;46.052;12.540;2022-12-18T04:56:18;2.10;99.90
40932;DHT22;36257;46.052;12.540;2022-12-18T04:58:44;2.20;99.90
40932;DHT22;36257;46.052;12.540;2022-12-18T05:01:14;2.20;99.90
40932;DHT22;36257;46.052;12.540;2022-12-18T05:03:40;2.20;99.90
40932;DHT22;36257;46.052;12.540;2022-12-18T05:06:06;2.20;99.90
40932;DHT22;36257;46.052;12.540;2022-12-18T05:08:32;2.20;99.90
40932;DHT22;36257;46.052;12.540;2022-12-18T05:10:59;2.20;99.90
40932;DHT22;36257;46.052;12.540;2022-12-18T05:13:26;2.10;99.90
40932;DHT22;36257;46.052;12.540;2022-12-18T05:15:52;2.00;99.90
40932;DHT22;36257;46.052;12.540;2022-12-18T05:18:18;2.00;99.90
40932;DHT22;36257;46.052;12.540;2022-12-18T05:20:44;2.00;99.90
40932;DHT22;36257;46.052;12.540;2022-12-18T05:23:09;2.00;99.90
40932;DHT22;36257;46.052;12.540;2022-12-18T05:25:35;2.00;99.90
40932;DHT22;36257;46.052;12.540;2022-12-18T05:28:01;2.00;99.90
40932;DHT22;36257;46.052;12.540;2022-12-18T05:30:26;1.90;99.90
40932;DHT22;36257;46.052;12.540;2022-12-18T05:32:53;1.90;99.90
40932;DHT22;36257;46.052;12.540;2022-12-18T05:35:18;1.80;99.90
40932;DHT22;36257;46.052;12.540;2022-12-18T05:37:44;1.90;99.90
40932;DHT22;36257;46.052;12.540;2022-12-18T05:40:11;1.90;99.90
40932;DHT22;36257;46.052;12.540;2022-12-18T05:42:37;1.90;99.90
40932;DHT22;36257;46.052;12.540;2022-12-18T05:45:03;1.90;99.90
40932;DHT22;36257;46.052;12.540;2022-12-18T05:47:29;1.90;99.90
40932;DHT22;36257;46.052;12.540;2022-12-18T05:49:55;1.80;99.90
40932;DHT22;36257;46.052;12.540;2022-12-18T05:52:21;1.80;99.90
40932;DHT22;36257;46.052;12.540;2022-12-18T05:54:46;1.80;99.90
40932;DHT22;36257;46.052;12.540;2022-12-18T05:57:12;1.80;99.90
40932;DHT22;36257;46.052;12.540;2022-12-18T05:59:38;1.70;99.90
40932;DHT22;36257;46.052;12.540;2022-12-18T06:02:03;1.80;99.90
40932;DHT22;36257;46.052;12.540;2022-12-18T06:04:29;1.80;99.90
40932;DHT22;36257;46.052;12.540;2022-12-18T06:06:55;1.80;99.90
40932;DHT22;36257;46.052;12.540;2022-12-18T06:09:20;1.80;99.90
40932;DHT22;36257;46.052;12.540;2022-12-18T06:11:46;1.70;99.90
40932;DHT22;36257;46.052;12.540;2022-12-18T06:14:12;1.70;99.90
40932;DHT22;36257;46.052;12.540;2022-12-18T06:16:37;1.60;99.90
40932;DHT22;36257;46.052;12.540;2022-12-18T06:19:07;1.60;99.90
40932;DHT22;36257;46.052;12.540;2022-12-18T06:21:33;1.50;99.90
40932;DHT22;36257;46.052;12.540;2022-12-18T06:24:02;1.50;99.90
40932;DHT22;36257;46.052;12.540;2022-12-18T06:26:28;1.50;99.90
40932;DHT22;36257;46.052;12.540;2022-12-18T06:28:54;1.50;99.90
40932;DHT22;36257;46.052;12.540;2022-12-18T06:31:19;1.40;99.90
40932;DHT22;36257;46.052;12.540;2022-12-18T06:33:45;1.40;99.90
40932;DHT22;36257;46.052;12.540;2022-12-18T06:36:12;1.40;99.90
40932;DHT22;36257;46.052;12.540;2022-12-18T06:38:40;1.40;99.90
40932;DHT22;36257;46.052;12.540;2022-12-18T06:41:12;1.40;99.90
40932;DHT22;36257;46.052;12.540;2022-12-18T06:43:44;1.40;99.90
40932;DHT22;36257;46.052;12.540;2022-12-18T06:46:13;1.50;99.90
40932;DHT22;36257;46.052;12.540;2022-12-18T06:48:39;1.50;99.90
40932;DHT22;36257;46.052;12.540;2022-12-18T06:51:05;1.60;99.90
40932;DHT22;36257;46.052;12.540;2022-12-18T06:53:32;1.50;99.90
40932;DHT22;36257;46.052;12.540;2022-12-18T06:56:06;1.60;99.90
40932;DHT22;36257;46.052;12.540;2022-12-18T06:58:33;1.70;99.90
40932;DHT22;36257;46.052;12.540;2022-12-18T07:01:03;1.70;99.90
40932;DHT22;36257;46.052;12.540;2022-12-18T07:03:29;1.80;99.90
40932;DHT22;36257;46.052;12.540;2022-12-18T07:05:55;1.80;99.90
40932;DHT22;36257;46.052;12.540;2022-12-18T07:08:21;1.80;99.90
40932;DHT22;36257;46.052;12.540;2022-12-18T07:10:47;1.90;99.90
40932;DHT22;36257;46.052;12.540;2022-12-18T07:13:15;1.90;99.90
40932;DHT22;36257;46.052;12.540;2022-12-18T07:15:40;2.00;99.90
40932;DHT22;36257;46.052;12.540;2022-12-18T07:18:06;2.00;99.90
40932;DHT22;36257;46.052;12.540;2022-12-18T07:20:32;2.00;99.90
40932;DHT22;36257;46.052;12.540;2022-12-18T07:22:57;2.00;99.90
40932;DHT22;36257;46.052;12.540;2022-12-18T07:25:23;2.10;99.90
40932;DHT22;36257;46.052;12.540;2022-12-18T07:27:48;2.20;99.90
40932;DHT22;36257;46.052;12.540;2022-12-18T07:30:14;2.20;99.90
40932;DHT22;36257;46.052;12.540;2022-12-18T07:32:40;2.20;99.90
40932;DHT22;36257;46.052;12.540;2022-12-18T07:35:05;2.20;99.90
40932;DHT22;36257;46.052;12.540;2022-12-18T07:37:31;2.30;99.90
40932;DHT22;36257;46.052;12.540;2022-12-18T07:39:57;2.40;99.90
40932;DHT22;36257;46.052;12.540;2022-12-18T07:42:22;2.50;99.90
40932;DHT22;36257;46.052;12.540;2022-12-18T07:44:58;2.60;99.90
40932;DHT22;36257;46.052;12.540;2022-12-18T07:47:23;2.90;99.90
40932;DHT22;36257;46.052;12.540;2022-12-18T07:49:49;3.10;99.90
40932;DHT22;36257;46.052;12.540;2022-12-18T07:52:15;3.30;99.90
40932;DHT22;36257;46.052;12.540;2022-12-18T07:54:40;3.40;99.90
40932;DHT22;36257;46.052;12.540;2022-12-18T07:57:07;3.50;99.90
40932;DHT22;36257;46.052;12.540;2022-12-18T07:59:32;3.80;99.90
40932;DHT22;36257;46.052;12.540;2022-12-18T08:01:58;3.90;99.90
40932;DHT22;36257;46.052;12.540;2022-12-18T08:04:24;3.90;99.90
40932;DHT22;36257;46.052;12.540;2022-12-18T08:06:50;4.10;99.90
40932;DHT22;36257;46.052;12.540;2022-12-18T08:09:16;4.20;99.90
40932;DHT22;36257;46.052;12.540;2022-12-18T08:11:42;4.30;99.90
40932;DHT22;36257;46.052;12.540;2022-12-18T08:14:08;4.40;99.90
40932;DHT22;36257;46.052;12.540;2022-12-18T08:16:33;4.50;99.10
40932;DHT22;36257;46.052;12.540;2022-12-18T08:18:59;4.60;98.40
40932;DHT22;36257;46.052;12.540;2022-12-18T08:21:27;4.70;98.20
40932;DHT22;36257;46.052;12.540;2022-12-18T08:23:55;4.90;96.80
40932;DHT22;36257;46.052;12.540;2022-12-18T08:26:21;5.00;96.70
40932;DHT22;36257;46.052;12.540;2022-12-18T08:28:47;5.10;94.50
40932;DHT22;36257;46.052;12.540;2022-12-18T08:31:13;5.00;94.40
40932;DHT22;36257;46.052;12.540;2022-12-18T08:33:41;5.10;95.90
40932;DHT22;36257;46.052;12.540;2022-12-18T08:36:08;5.20;95.80
40932;DHT22;36257;46.052;12.540;2022-12-18T08:38:33;5.30;94.30
40932;DHT22;36257;46.052;12.540;2022-12-18T08:41:00;5.30;93.40
40932;DHT22;36257;46.052;12.540;2022-12-18T08:43:26;5.50;95.20
40932;DHT22;36257;46.052;12.540;2022-12-18T08:46:11;5.60;93.90
40932;DHT22;36257;46.052;12.540;2022-12-18T08:48:36;5.70;92.00
40932;DHT22;36257;46.052;12.540;2022-12-18T08:51:02;5.60;92.10
40932;DHT22;36257;46.052;12.540;2022-12-18T08:53:28;5.70;93.00
40932;DHT22;36257;46.052;12.540;2022-12-18T08:55:54;5.80;92.80
40932;DHT22;36257;46.052;12.540;2022-12-18T08:58:21;5.70;93.00
40932;DHT22;36257;46.052;12.540;2022-12-18T09:00:47;6.00;92.80
40932;DHT22;36257;46.052;12.540;2022-12-18T09:03:14;6.10;92.30
40932;DHT22;36257;46.052;12.540;2022-12-18T09:05:40;6.20;92.00
40932;DHT22;36257;46.052;12.540;2022-12-18T09:08:05;6.20;91.80
40932;DHT22;36257;46.052;12.540;2022-12-18T09:10:32;6.50;91.40
40932;DHT22;36257;46.052;12.540;2022-12-18T09:12:57;6.60;90.30
40932;DHT22;36257;46.052;12.540;2022-12-18T09:15:23;6.80;89.50
40932;DHT22;36257;46.052;12.540;2022-12-18T09:17:48;6.90;89.20
40932;DHT22;36257;46.052;12.540;2022-12-18T09:20:15;7.00;88.00
40932;DHT22;36257;46.052;12.540;2022-12-18T09:22:41;7.30;90.20
40932;DHT22;36257;46.052;12.540;2022-12-18T09:25:07;7.40;88.10
40932;DHT22;36257;46.052;12.540;2022-12-18T09:27:33;7.40;87.90
40932;DHT22;36257;46.052;12.540;2022-12-18T09:29:59;7.40;86.10
40932;DHT22;36257;46.052;12.540;2022-12-18T09:32:25;7.20;87.60
40932;DHT22;36257;46.052;12.540;2022-12-18T09:34:50;7.40;88.60
40932;DHT22;36257;46.052;12.540;2022-12-18T09:37:16;7.70;87.60
40932;DHT22;36257;46.052;12.540;2022-12-18T09:39:41;7.80;85.40
40932;DHT22;36257;46.052;12.540;2022-12-18T09:42:22;8.00;85.50
40932;DHT22;36257;46.052;12.540;2022-12-18T09:44:51;8.00;84.00
40932;DHT22;36257;46.052;12.540;2022-12-18T09:47:34;8.00;82.80
40932;DHT22;36257;46.052;12.540;2022-12-18T09:50:05;8.10;86.10
40932;DHT22;36257;46.052;12.540;2022-12-18T09:52:42;8.20;84.40
40932;DHT22;36257;46.052;12.540;2022-12-18T09:55:30;8.20;84.80
40932;DHT22;36257;46.052;12.540;2022-12-18T09:58:07;8.50;85.40
40932;DHT22;36257;46.052;12.540;2022-12-18T10:00:37;8.90;83.30
40932;DHT22;36257;46.052;12.540;2022-12-18T10:03:11;9.00;81.80
40932;DHT22;36257;46.052;12.540;2022-12-18T10:20:14;9.40;83.20
40932;DHT22;36257;46.052;12.540;2022-12-18T10:27:58;9.70;79.80
40932;DHT22;36257;46.052;12.540;2022-12-18T10:30:26;9.80;78.50
40932;DHT22;36257;46.052;12.540;2022-12-18T10:32:52;9.70;77.00
40932;DHT22;36257;46.052;12.540;2022-12-18T10:35:19;9.40;77.20
40932;DHT22;36257;46.052;12.540;2022-12-18T10:41:02;9.80;79.10
40932;DHT22;36257;46.052;12.540;2022-12-18T10:43:29;10.00;77.30
40932;DHT22;36257;46.052;12.540;2022-12-18T10:48:31;10.50;75.00
40932;DHT22;36257;46.052;12.540;2022-12-18T10:50:58;10.40;75.40
40932;DHT22;36257;46.052;12.540;2022-12-18T10:53:27;10.70;77.30
40932;DHT22;36257;46.052;12.540;2022-12-18T10:55:56;10.70;76.40
40932;DHT22;36257;46.052;12.540;2022-12-18T10:58:30;10.90;75.40
40932;DHT22;36257;46.052;12.540;2022-12-18T11:01:17;11.40;76.00
40932;DHT22;36257;46.052;12.540;2022-12-18T11:03:58;11.70;75.20
40932;DHT22;36257;46.052;12.540;2022-12-18T11:06:25;11.90;73.70
40932;DHT22;36257;46.052;12.540;2022-12-18T11:11:24;11.60;75.30
40932;DHT22;36257;46.052;12.540;2022-12-18T11:14:06;12.00;75.60
40932;DHT22;36257;46.052;12.540;2022-12-18T11:16:47;12.20;71.70
40932;DHT22;36257;46.052;12.540;2022-12-18T11:21:46;12.50;73.70
40932;DHT22;36257;46.052;12.540;2022-12-18T11:24:24;12.90;74.60
40932;DHT22;36257;46.052;12.540;2022-12-18T11:26:53;13.20;72.60
40932;DHT22;36257;46.052;12.540;2022-12-18T11:29:27;13.60;72.00
40932;DHT22;36257;46.052;12.540;2022-12-18T11:34:49;13.70;70.00
40932;DHT22;36257;46.052;12.540;2022-12-18T11:37:17;13.80;69.30
40932;DHT22;36257;46.052;12.540;2022-12-18T11:39:51;13.60;67.90
40932;DHT22;36257;46.052;12.540;2022-12-18T11:47:44;12.80;71.40
40932;DHT22;36257;46.052;12.540;2022-12-18T11:50:56;12.90;70.60
40932;DHT22;36257;46.052;12.540;2022-12-18T11:53:15;12.90;70.80
40932;DHT22;36257;46.052;12.540;2022-12-18T12:17:35;11.90;72.50
40932;DHT22;36257;46.052;12.540;2022-12-18T12:22:53;11.70;74.10
40932;DHT22;36257;46.052;12.540;2022-12-18T12:25:28;12.10;73.30
40932;DHT22;36257;46.052;12.540;2022-12-18T12:28:07;12.70;71.90
40932;DHT22;36257;46.052;12.540;2022-12-18T12:38:42;12.30;72.30
40932;DHT22;36257;46.052;12.540;2022-12-18T12:41:13;12.10;71.30
40932;DHT22;36257;46.052;12.540;2022-12-18T12:44:03;12.00;71.60
40932;DHT22;36257;46.052;12.540;2022-12-18T12:46:33;12.00;72.40
40932;DHT22;36257;46.052;12.540;2022-12-18T12:49:13;11.80;73.00
40932;DHT22;36257;46.052;12.540;2022-12-18T12:51:43;11.70;72.70
40932;DHT22;36257;46.052;12.540;2022-12-18T12:54:17;12.10;74.10
40932;DHT22;36257;46.052;12.540;2022-12-18T13:02:33;11.90;71.30
40932;DHT22;36257;46.052;12.540;2022-12-18T13:05:26;11.60;73.10
40932;DHT22;36257;46.052;12.540;2022-12-18T13:08:06;11.90;73.70
40932;DHT22;36257;46.052;12.540;2022-12-18T13:10:39;12.20;71.80
40932;DHT22;36257;46.052;12.540;2022-12-18T13:13:09;12.10;72.90
40932;DHT22;36257;46.052;12.540;2022-12-18T13:15:45;12.30;72.80
40932;DHT22;36257;46.052;12.540;2022-12-18T13:18:17;12.10;71.10
40932;DHT22;36257;46.052;12.540;2022-12-18T13:25:55;12.30;72.20
40932;DHT22;36257;46.052;12.540;2022-12-18T13:31:00;12.20;72.30
40932;DHT22;36257;46.052;12.540;2022-12-18T13:41:36;11.90;71.50
40932;DHT22;36257;46.052;12.540;2022-12-18T13:47:36;12.40;73.10
40932;DHT22;36257;46.052;12.540;2022-12-18T13:50:34;12.60;71.40
40932;DHT22;36257;46.052;12.540;2022-12-18T13:53:00;12.70;70.30
40932;DHT22;36257;46.052;12.540;2022-12-18T13:55:29;12.50;70.00
40932;DHT22;36257;46.052;12.540;2022-12-18T13:58:04;12.30;72.50
40932;DHT22;36257;46.052;12.540;2022-12-18T14:00:30;12.20;73.60
40932;DHT22;36257;46.052;12.540;2022-12-18T14:02:58;12.10;72.30
40932;DHT22;36257;46.052;12.540;2022-12-18T14:05:30;12.00;72.10
40932;DHT22;36257;46.052;12.540;2022-12-18T14:08:01;11.70;73.10
40932;DHT22;36257;46.052;12.540;2022-12-18T14:10:28;11.00;73.80
40932;DHT22;36257;46.052;12.540;2022-12-18T14:12:56;11.00;76.20
40932;DHT22;36257;46.052;12.540;2022-12-18T14:17:58;11.20;74.10
40932;DHT22;36257;46.052;12.540;2022-12-18T14:20:25;11.00;74.20
40932;DHT22;36257;46.052;12.540;2022-12-18T14:22:52;10.60;74.30
40932;DHT22;36257;46.052;12.540;2022-12-18T14:25:22;10.40;75.70
40932;DHT22;36257;46.052;12.540;2022-12-18T14:30:32;10.40;76.30
40932;DHT22;36257;46.052;12.540;2022-12-18T14:35:27;10.30;77.20
40932;DHT22;36257;46.052;12.540;2022-12-18T14:37:52;10.30;76.40
40932;DHT22;36257;46.052;12.540;2022-12-18T14:40:18;10.10;76.10
40932;DHT22;36257;46.052;12.540;2022-12-18T14:42:43;9.90;76.40
40932;DHT22;36257;46.052;12.540;2022-12-18T14:45:44;9.60;77.30
40932;DHT22;36257;46.052;12.540;2022-12-18T14:50:37;9.30;81.90
40932;DHT22;36257;46.052;12.540;2022-12-18T14:53:03;9.10;83.00
40932;DHT22;36257;46.052;12.540;2022-12-18T14:55:29;8.80;83.90
40932;DHT22;36257;46.052;12.540;2022-12-18T14:57:56;8.50;85.20
40932;DHT22;36257;46.052;12.540;2022-12-18T15:00:24;8.30;86.30
40932;DHT22;36257;46.052;12.540;2022-12-18T15:02:53;8.20;87.00
40932;DHT22;36257;46.052;12.540;2022-12-18T15:05:30;7.90;87.30
40932;DHT22;36257;46.052;12.540;2022-12-18T15:07:59;7.70;87.50
40932;DHT22;36257;46.052;12.540;2022-12-18T15:10:32;7.40;88.40
40932;DHT22;36257;46.052;12.540;2022-12-18T15:20:56;6.50;90.90
40932;DHT22;36257;46.052;12.540;2022-12-18T15:23:46;6.40;91.40
40932;DHT22;36257;46.052;12.540;2022-12-18T15:26:15;6.30;91.90
40932;DHT22;36257;46.052;12.540;2022-12-18T15:28:47;6.20;92.30
40932;DHT22;36257;46.052;12.540;2022-12-18T15:36:19;5.80;93.40
40932;DHT22;36257;46.052;12.540;2022-12-18T15:38:49;5.70;93.80
40932;DHT22;36257;46.052;12.540;2022-12-18T15:41:17;5.60;94.30
40932;DHT22;36257;46.052;12.540;2022-12-18T15:43:48;5.50;94.50
40932;DHT22;36257;46.052;12.540;2022-12-18T15:46:18;5.40;94.80
40932;DHT22;36257;46.052;12.540;2022-12-18T15:48:49;5.40;95.00
40932;DHT22;36257;46.052;12.540;2022-12-18T15:51:21;5.30;95.30
40932;DHT22;36257;46.052;12.540;2022-12-18T15:53:50;5.20;95.70
40932;DHT22;36257;46.052;12.540;2022-12-18T15:56:16;5.10;96.20
40932;DHT22;36257;46.052;12.540;2022-12-18T15:59:02;5.00;96.70
40932;DHT22;36257;46.052;12.540;2022-12-18T16:01:29;4.90;97.10
40932;DHT22;36257;46.052;12.540;2022-12-18T16:03:55;4.70;97.80
40932;DHT22;36257;46.052;12.540;2022-12-18T16:06:22;4.60;98.40
40932;DHT22;36257;46.052;12.540;2022-12-18T16:08:48;4.50;98.60
40932;DHT22;36257;46.052;12.540;2022-12-18T16:11:25;4.60;98.40
40932;DHT22;36257;46.052;12.540;2022-12-18T16:14:23;4.60;98.20
40932;DHT22;36257;46.052;12.540;2022-12-18T16:16:55;4.60;98.00
40932;DHT22;36257;46.052;12.540;2022-12-18T16:19:21;4.50;98.00
40932;DHT22;36257;46.052;12.540;2022-12-18T16:21:49;4.40;98.40
40932;DHT22;36257;46.052;12.540;2022-12-18T16:24:21;4.40;98.60
40932;DHT22;36257;46.052;12.540;2022-12-18T16:26:50;4.40;98.70
40932;DHT22;36257;46.052;12.540;2022-12-18T16:29:17;4.40;98.50
40932;DHT22;36257;46.052;12.540;2022-12-18T16:31:43;4.40;98.40
40932;DHT22;36257;46.052;12.540;2022-12-18T16:34:21;4.30;98.50
40932;DHT22;36257;46.052;12.540;2022-12-18T16:36:50;4.20;98.70
40932;DHT22;36257;46.052;12.540;2022-12-18T16:39:17;4.20;98.80
40932;DHT22;36257;46.052;12.540;2022-12-18T16:41:43;4.20;98.80
40932;DHT22;36257;46.052;12.540;2022-12-18T16:44:09;4.20;98.90
40932;DHT22;36257;46.052;12.540;2022-12-18T16:46:36;4.20;98.90
40932;DHT22;36257;46.052;12.540;2022-12-18T16:49:02;4.10;99.10
40932;DHT22;36257;46.052;12.540;2022-12-18T16:51:28;4.10;99.10
40932;DHT22;36257;46.052;12.540;2022-12-18T16:53:55;4.00;99.50
40932;DHT22;36257;46.052;12.540;2022-12-18T16:56:21;4.00;99.60
40932;DHT22;36257;46.052;12.540;2022-12-18T16:58:54;3.90;99.70
40932;DHT22;36257;46.052;12.540;2022-12-18T17:01:20;3.90;99.70
40932;DHT22;36257;46.052;12.540;2022-12-18T17:03:59;3.80;99.90
40932;DHT22;36257;46.052;12.540;2022-12-18T17:06:27;3.90;99.80
40932;DHT22;36257;46.052;12.540;2022-12-18T17:09:01;3.80;99.90
40932;DHT22;36257;46.052;12.540;2022-12-18T17:11:30;3.90;99.80
40932;DHT22;36257;46.052;12.540;2022-12-18T17:13:55;3.80;99.90
40932;DHT22;36257;46.052;12.540;2022-12-18T17:16:22;3.70;99.90
40932;DHT22;36257;46.052;12.540;2022-12-18T17:18:48;3.70;99.90
40932;DHT22;36257;46.052;12.540;2022-12-18T17:21:15;3.70;99.90
40932;DHT22;36257;46.052;12.540;2022-12-18T17:23:41;3.70;99.90
40932;DHT22;36257;46.052;12.540;2022-12-18T17:26:13;3.60;99.90
40932;DHT22;36257;46.052;12.540;2022-12-18T17:28:40;3.60;99.90
40932;DHT22;36257;46.052;12.540;2022-12-18T17:31:17;3.60;99.90
40932;DHT22;36257;46.052;12.540;2022-12-18T17:33:43;3.50;99.90
40932;DHT22;36257;46.052;12.540;2022-12-18T17:36:10;3.40;99.90
40932;DHT22;36257;46.052;12.540;2022-12-18T17:38:36;3.40;99.90
40932;DHT22;36257;46.052;12.540;2022-12-18T17:41:03;3.40;99.90
40932;DHT22;36257;46.052;12.540;2022-12-18T17:43:29;3.30;99.90
40932;DHT22;36257;46.052;12.540;2022-12-18T17:45:55;3.20;99.90
40932;DHT22;36257;46.052;12.540;2022-12-18T17:48:20;3.20;99.90
40932;DHT22;36257;46.052;12.540;2022-12-18T17:50:46;3.20;99.90
40932;DHT22;36257;46.052;12.540;2022-12-18T17:53:12;3.10;99.90
40932;DHT22;36257;46.052;12.540;2022-12-18T17:55:37;3.10;99.90
40932;DHT22;36257;46.052;12.540;2022-12-18T17:58:03;3.10;99.90
40932;DHT22;36257;46.052;12.540;2022-12-18T18:00:29;3.10;99.90
40932;DHT22;36257;46.052;12.540;2022-12-18T18:02:54;3.10;99.90
40932;DHT22;36257;46.052;12.540;2022-12-18T18:05:20;3.00;99.90
40932;DHT22;36257;46.052;12.540;2022-12-18T18:07:46;3.00;99.90
40932;DHT22;36257;46.052;12.540;2022-12-18T18:10:11;2.90;99.90
40932;DHT22;36257;46.052;12.540;2022-12-18T18:12:37;2.90;99.90